Time;durP1;ratioP1;P1;durP2;ratioP2;P2;SDS_P1;SDS_P2;PMS_P1;PMS_P2;Temp;Humidity;BMP_temperature;BMP_pressure;BME280_temperature;BME280_humidity;BME280_pressure;Samples;Min_cycle;Max_cycle;Signal;HPM_P1;HPM_P2
2023/12/13 00:01:23;;;;;;;16.93;15.47;;;8.00;99.90;;;;;;4867406;29;20432;-42
2023/12/13 00:03:50;;;;;;;16.77;15.37;;;8.00;99.90;;;;;;4867280;29;20427;-42
2023/12/13 00:06:15;;;;;;;16.20;14.90;;;7.90;1.00;;;;;;4867248;29;20465;-42
2023/12/13 00:08:41;;;;;;;15.83;14.53;;;7.90;55.50;;;;;;4866476;29;20480;-42
2023/12/13 00:11:07;;;;;;;17.33;15.73;;;7.80;99.50;;;;;;4866810;29;20484;-46
2023/12/13 00:13:33;;;;;;;17.00;15.60;;;7.70;99.90;;;;;;4866331;29;20845;-44
2023/12/13 00:16:00;;;;;;;16.37;14.97;;;7.70;99.90;;;;;;4867220;29;20420;-46
2023/12/13 00:18:26;;;;;;;16.93;15.50;;;7.80;99.90;;;;;;4865083;29;20431;-43
2023/12/13 00:20:52;;;;;;;17.17;15.67;;;7.80;99.90;;;;;;4866722;29;20811;-52
2023/12/13 00:23:18;;;;;;;17.10;15.80;;;7.70;99.90;;;;;;4867708;29;20199;-54
2023/12/13 00:25:43;;;;;;;16.93;15.63;;;7.70;99.90;;;;;;4865527;29;20931;-54
2023/12/13 00:28:09;;;;;;;16.93;15.60;;;7.70;99.90;;;;;;4867272;29;20476;-53
2023/12/13 00:30:34;;;;;;;17.43;15.93;;;7.70;99.90;;;;;;4865563;29;20196;-53
2023/12/13 00:33:00;;;;;;;17.93;16.43;;;7.70;99.90;;;;;;4866059;29;20263;-55
2023/12/13 00:35:25;;;;;;;18.70;16.83;;;7.70;1.00;;;;;;4866858;29;20188;-55
2023/12/13 00:37:51;;;;;;;17.10;15.90;;;7.70;1.00;;;;;;4866907;29;20204;-53
2023/12/13 00:40:18;;;;;;;18.40;16.73;;;7.70;1.00;;;;;;4880618;29;20238;-53
2023/12/13 00:42:44;;;;;;;17.60;16.30;;;7.70;1.00;;;;;;4866266;29;20188;-53
2023/12/13 00:45:10;;;;;;;18.43;16.63;;;7.80;1.00;;;;;;4865577;29;20807;-51
2023/12/13 00:47:35;;;;;;;18.83;17.13;;;7.80;1.00;;;;;;4866649;29;20269;-54
2023/12/13 00:50:01;;;;;;;17.13;15.57;;;7.80;1.00;;;;;;4866351;29;20206;-51
2023/12/13 00:52:27;;;;;;;18.10;16.60;;;7.80;1.00;;;;;;4866321;29;20659;-52
2023/12/13 00:54:53;;;;;;;17.87;16.27;;;7.80;1.00;;;;;;4866064;29;20184;-53
2023/12/13 00:57:19;;;;;;;17.73;16.13;;;7.80;1.00;;;;;;4867366;29;20262;-52
2023/12/13 00:59:45;;;;;;;18.07;16.13;;;7.90;1.00;;;;;;4864880;29;20446;-53
2023/12/13 01:02:10;;;;;;;17.93;16.27;;;7.90;1.00;;;;;;4867007;29;20311;-51
2023/12/13 01:04:38;;;;;;;17.63;16.03;;;7.90;1.00;;;;;;4866823;29;20596;-52
2023/12/13 01:07:03;;;;;;;18.40;17.00;;;7.80;1.00;;;;;;4865537;29;20282;-55
2023/12/13 01:09:29;;;;;;;18.17;16.23;;;7.80;1.00;;;;;;4865900;29;20443;-52
2023/12/13 01:11:54;;;;;;;19.27;17.27;;;7.90;1.00;;;;;;4865475;29;20196;-54
2023/12/13 01:14:20;;;;;;;18.60;17.00;;;7.90;1.00;;;;;;4866225;29;20200;-53
2023/12/13 01:16:46;;;;;;;18.00;16.60;;;7.90;1.00;;;;;;4866773;29;20203;-52
2023/12/13 01:19:11;;;;;;;19.33;17.53;;;7.90;1.00;;;;;;4865511;29;20709;-54
2023/12/13 01:21:37;;;;;;;18.27;16.77;;;7.90;1.00;;;;;;4866917;29;20206;-55
2023/12/13 01:24:03;;;;;;;18.60;17.03;;;7.80;1.00;;;;;;4865886;29;20192;-54
2023/12/13 01:26:28;;;;;;;18.47;16.97;;;7.90;1.00;;;;;;4866515;29;20207;-53
2023/12/13 01:28:54;;;;;;;18.20;16.80;;;7.90;1.00;;;;;;4865502;29;20694;-53
2023/12/13 01:31:20;;;;;;;19.97;18.10;;;7.90;1.00;;;;;;4865435;29;20207;-50
2023/12/13 01:33:45;;;;;;;18.30;16.90;;;7.90;1.00;;;;;;4865372;29;20218;-55
2023/12/13 01:36:11;;;;;;;19.33;17.40;;;8.00;1.00;;;;;;4866627;29;20244;-54
2023/12/13 01:38:37;;;;;;;19.00;17.50;;;8.00;1.00;;;;;;4865128;29;20188;-54
2023/12/13 01:41:03;;;;;;;19.83;18.20;;;8.00;1.00;;;;;;4865739;29;20198;-52
2023/12/13 01:43:29;;;;;;;19.47;17.70;;;8.00;1.00;;;;;;4866216;29;21136;-53
2023/12/13 01:45:57;;;;;;;19.97;17.83;;;8.00;1.00;;;;;;4869944;29;20440;-53
2023/12/13 01:48:25;;;;;;;19.87;18.27;;;8.00;1.00;;;;;;4869773;29;20238;-54
2023/12/13 01:50:53;;;;;;;19.93;18.23;;;7.90;1.00;;;;;;4868629;29;20513;-55
2023/12/13 01:53:19;;;;;;;19.20;17.27;;;7.90;1.00;;;;;;4869488;29;20426;-53
2023/12/13 01:55:46;;;;;;;18.70;17.30;;;8.00;1.00;;;;;;4869712;29;20781;-52
2023/12/13 01:58:12;;;;;;;19.67;17.67;;;8.00;1.00;;;;;;4869025;29;21102;-55
2023/12/13 02:00:41;;;;;;;20.07;18.13;;;8.00;1.00;;;;;;4868259;29;20444;-52
2023/12/13 02:03:09;;;;;;;17.97;16.57;;;8.00;1.00;;;;;;4869109;29;21230;-54
2023/12/13 02:05:35;;;;;;;20.30;18.40;;;8.00;1.00;;;;;;4867967;29;20459;-56
2023/12/13 02:08:02;;;;;;;19.57;17.77;;;8.00;1.00;;;;;;4867702;29;20479;-50
2023/12/13 02:10:27;;;;;;;18.90;17.30;;;8.00;1.00;;;;;;4868734;29;20428;-55
2023/12/13 02:12:53;;;;;;;19.47;17.77;;;7.90;1.00;;;;;;4868885;29;20460;-55
2023/12/13 02:15:21;;;;;;;19.80;17.83;;;7.90;1.00;;;;;;4868674;29;20232;-52
2023/12/13 02:17:53;;;;;;;18.53;16.80;;;7.90;1.00;;;;;;4868722;29;20199;-54
2023/12/13 02:20:20;;;;;;;19.67;18.07;;;7.90;1.00;;;;;;4867744;29;20464;-53
2023/12/13 02:22:45;;;;;;;18.33;16.93;;;7.90;1.00;;;;;;4868993;29;20428;-50
2023/12/13 02:25:17;;;;;;;19.53;17.83;;;7.90;1.00;;;;;;4868525;29;20942;-54
2023/12/13 02:27:43;;;;;;;18.80;17.23;;;7.90;1.00;;;;;;4868605;29;20671;-55
2023/12/13 02:30:09;;;;;;;19.63;17.90;;;7.90;1.00;;;;;;4868225;29;20835;-56
2023/12/13 02:32:36;;;;;;;20.13;18.20;;;7.90;1.00;;;;;;4868416;29;20421;-52
2023/12/13 02:35:03;;;;;;;20.50;18.40;;;7.90;1.00;;;;;;4868390;29;20432;-53
2023/12/13 02:37:29;;;;;;;19.93;18.03;;;7.90;1.00;;;;;;4868491;29;20425;-52
2023/12/13 02:39:56;;;;;;;20.57;18.37;;;7.90;1.00;;;;;;4868248;29;20436;-55
2023/12/13 02:42:22;;;;;;;20.73;18.80;;;7.90;1.00;;;;;;4868127;29;20524;-55
2023/12/13 02:44:48;;;;;;;21.00;19.00;;;7.90;1.00;;;;;;4868659;29;20476;-50
2023/12/13 02:47:13;;;;;;;21.87;19.93;;;7.80;1.00;;;;;;4868381;29;21115;-54
2023/12/13 02:49:39;;;;;;;21.70;20.00;;;7.80;1.00;;;;;;4868136;29;20535;-54
2023/12/13 02:52:05;;;;;;;22.43;20.10;;;7.70;1.00;;;;;;4868417;29;20263;-54
2023/12/13 02:54:30;;;;;;;22.13;20.23;;;7.70;1.00;;;;;;4867999;29;20267;-52
2023/12/13 02:56:56;;;;;;;21.77;19.70;;;7.60;1.20;;;;;;4868446;29;20492;-55
2023/12/13 02:59:22;;;;;;;22.10;20.10;;;7.50;20.70;;;;;;4867246;29;20195;-55
2023/12/13 03:01:47;;;;;;;20.90;19.13;;;7.50;33.10;;;;;;4868121;29;20271;-51
2023/12/13 03:04:13;;;;;;;23.03;20.83;;;7.50;48.30;;;;;;4868310;29;20180;-52
2023/12/13 03:06:38;;;;;;;22.70;20.90;;;7.40;69.10;;;;;;4868167;29;20192;-54
2023/12/13 03:09:04;;;;;;;22.30;20.50;;;7.40;93.20;;;;;;4867739;29;20240;-51
2023/12/13 03:11:30;;;;;;;23.80;21.60;;;7.40;99.90;;;;;;4868722;29;20172;-54
2023/12/13 03:13:56;;;;;;;22.90;20.90;;;7.30;99.90;;;;;;4867628;29;20771;-54
2023/12/13 03:16:21;;;;;;;24.93;22.60;;;7.30;99.90;;;;;;4867675;29;20440;-53
2023/12/13 03:18:47;;;;;;;24.03;21.83;;;7.20;99.90;;;;;;4867453;29;20546;-53
2023/12/13 03:21:12;;;;;;;24.40;22.30;;;7.20;99.90;;;;;;4868183;29;20188;-53
2023/12/13 03:23:38;;;;;;;23.03;21.23;;;7.20;99.90;;;;;;4868196;29;20594;-52
2023/12/13 03:26:04;;;;;;;22.73;20.73;;;7.20;99.90;;;;;;4868609;29;20203;-52
2023/12/13 03:28:30;;;;;;;23.30;21.30;;;7.20;99.90;;;;;;4866334;29;20219;-54
2023/12/13 03:30:56;;;;;;;23.60;21.30;;;7.10;99.90;;;;;;4867631;29;20455;-55
2023/12/13 03:33:21;;;;;;;23.40;21.20;;;7.10;99.90;;;;;;4867580;29;20644;-55
2023/12/13 03:35:47;;;;;;;22.43;20.57;;;7.10;99.90;;;;;;4868022;29;20183;-54
2023/12/13 03:38:12;;;;;;;24.30;21.90;;;7.10;99.90;;;;;;4866408;29;20223;-54
2023/12/13 03:40:38;;;;;;;22.33;20.43;;;7.00;99.90;;;;;;4867308;29;20195;-54
2023/12/13 03:43:03;;;;;;;23.30;21.13;;;7.10;99.90;;;;;;4868398;29;20192;-46
2023/12/13 03:45:29;;;;;;;22.50;20.50;;;7.10;99.90;;;;;;4866888;29;20227;-46
2023/12/13 03:47:55;;;;;;;22.30;20.50;;;7.10;99.90;;;;;;4867759;29;20224;-44
2023/12/13 03:50:20;;;;;;;23.33;21.20;;;7.10;99.90;;;;;;4867085;29;20207;-44
2023/12/13 03:52:46;;;;;;;23.60;21.10;;;7.10;99.90;;;;;;4867180;29;20663;-45
2023/12/13 03:55:12;;;;;;;20.93;19.30;;;7.10;99.90;;;;;;4867682;29;20196;-45
2023/12/13 03:57:38;;;;;;;21.63;19.73;;;7.10;99.90;;;;;;4865637;29;20200;-47
2023/12/13 04:00:05;;;;;;;22.00;19.90;;;7.10;99.90;;;;;;4866255;29;20543;-45
2023/12/13 04:02:32;;;;;;;20.87;19.07;;;7.00;99.90;;;;;;4866865;29;20539;-47
2023/12/13 04:04:57;;;;;;;21.10;19.37;;;7.00;99.90;;;;;;4867548;29;20892;-44
2023/12/13 04:07:23;;;;;;;20.70;18.90;;;7.00;99.90;;;;;;4866652;29;20468;-48
2023/12/13 04:09:49;;;;;;;20.87;19.10;;;7.00;99.90;;;;;;4867144;29;20306;-45
2023/12/13 04:12:15;;;;;;;21.07;19.30;;;7.00;99.90;;;;;;4866968;29;20312;-45
2023/12/13 04:14:41;;;;;;;21.07;19.10;;;7.00;99.90;;;;;;4866045;29;20311;-45
2023/12/13 04:17:07;;;;;;;20.27;18.67;;;7.00;99.90;;;;;;4866171;29;20872;-46
2023/12/13 04:19:33;;;;;;;20.87;18.97;;;7.00;99.90;;;;;;4865321;29;20199;-45
2023/12/13 04:21:58;;;;;;;21.67;19.77;;;7.00;99.90;;;;;;4866574;29;20666;-45
2023/12/13 04:24:24;;;;;;;20.00;18.47;;;7.10;99.90;;;;;;4866544;29;20428;-44
2023/12/13 04:26:49;;;;;;;20.77;18.80;;;7.10;99.90;;;;;;4867396;29;20188;-47
2023/12/13 04:29:15;;;;;;;20.63;18.90;;;7.10;99.90;;;;;;4866329;29;20226;-48
2023/12/13 04:31:42;;;;;;;20.40;18.80;;;7.00;99.90;;;;;;4867314;29;20199;-44
2023/12/13 04:34:08;;;;;;;19.50;18.00;;;7.00;99.90;;;;;;4865781;29;20569;-45
2023/12/13 04:36:33;;;;;;;18.90;17.53;;;7.00;99.90;;;;;;4866582;29;20436;-45
2023/12/13 04:38:59;;;;;;;19.70;18.00;;;6.90;99.90;;;;;;4865742;29;20278;-45
2023/12/13 04:41:25;;;;;;;19.33;17.67;;;7.00;99.90;;;;;;4867076;29;20410;-47
2023/12/13 04:43:50;;;;;;;17.93;16.57;;;7.00;99.90;;;;;;4864927;29;20480;-46
2023/12/13 04:46:16;;;;;;;18.43;16.73;;;7.00;99.90;;;;;;4865945;29;20206;-44
2023/12/13 04:48:42;;;;;;;19.63;17.93;;;7.10;99.90;;;;;;4866822;29;20239;-53
2023/12/13 04:51:07;;;;;;;19.37;17.70;;;7.10;99.90;;;;;;4865835;29;20219;-53
2023/12/13 04:53:33;;;;;;;19.40;17.77;;;7.10;99.90;;;;;;4865912;29;20188;-54
2023/12/13 04:55:58;;;;;;;19.63;18.13;;;7.10;99.90;;;;;;4866378;29;20195;-54
2023/12/13 04:58:24;;;;;;;20.03;18.03;;;7.10;99.90;;;;;;4866852;29;20206;-53
2023/12/13 05:00:50;;;;;;;20.07;18.47;;;7.10;99.90;;;;;;4865245;29;20192;-54
2023/12/13 05:03:15;;;;;;;19.50;17.93;;;7.10;99.90;;;;;;4866544;29;20204;-53
2023/12/13 05:05:41;;;;;;;20.80;18.80;;;7.10;99.90;;;;;;4866157;29;20208;-55
2023/12/13 05:08:12;;;;;;;20.00;18.40;;;7.10;99.90;;;;;;4866860;29;20212;-55
2023/12/13 05:10:43;;;;;;;21.50;19.50;;;7.10;99.90;;;;;;4860940;29;20211;-50
2023/12/13 05:13:09;;;;;;;18.90;17.50;;;7.10;99.90;;;;;;4865164;29;20931;-54
2023/12/13 05:15:35;;;;;;;20.03;18.20;;;7.10;99.90;;;;;;4865125;29;20795;-52
2023/12/13 05:18:00;;;;;;;20.87;18.97;;;7.10;99.90;;;;;;4867818;29;20428;-50
2023/12/13 05:20:26;;;;;;;19.60;18.00;;;7.20;99.90;;;;;;4870204;29;20226;-50
2023/12/13 05:22:52;;;;;;;19.30;17.50;;;7.20;99.90;;;;;;4869809;29;20203;-54
2023/12/13 05:25:18;;;;;;;19.57;17.87;;;7.20;99.90;;;;;;4870490;29;20495;-54
2023/12/13 05:27:44;;;;;;;19.03;17.50;;;7.20;99.90;;;;;;4868608;29;20689;-55
2023/12/13 05:30:10;;;;;;;19.87;18.23;;;7.20;99.90;;;;;;4869634;29;20472;-55
2023/12/13 05:32:36;;;;;;;19.87;18.27;;;7.20;99.90;;;;;;4868916;29;20484;-51
2023/12/13 05:35:02;;;;;;;20.67;18.83;;;7.20;99.90;;;;;;4870070;29;20440;-49
2023/12/13 05:37:28;;;;;;;19.67;17.97;;;7.20;99.90;;;;;;4867939;29;20443;-55
2023/12/13 05:39:53;;;;;;;19.23;17.70;;;7.30;99.90;;;;;;4867994;29;20458;-49
2023/12/13 05:42:19;;;;;;;19.97;18.07;;;7.30;99.90;;;;;;4867576;29;20332;-52
2023/12/13 05:44:46;;;;;;;21.50;19.73;;;7.30;99.90;;;;;;4868957;29;20670;-52
2023/12/13 05:47:12;;;;;;;19.90;18.17;;;7.30;99.90;;;;;;4869543;29;20180;-52
2023/12/13 05:49:38;;;;;;;19.53;17.90;;;7.30;99.90;;;;;;4869803;29;20519;-54
2023/12/13 05:52:04;;;;;;;20.90;19.00;;;7.30;99.90;;;;;;4868019;29;20463;-51
2023/12/13 05:54:29;;;;;;;19.33;17.80;;;7.30;99.90;;;;;;4869942;29;20240;-51
2023/12/13 05:56:55;;;;;;;18.60;17.20;;;7.40;99.90;;;;;;4868943;29;20428;-51
2023/12/13 05:59:21;;;;;;;18.53;17.10;;;7.40;99.90;;;;;;4869841;29;20283;-52
2023/12/13 06:01:46;;;;;;;19.90;18.40;;;7.40;99.90;;;;;;4869809;29;20302;-52
2023/12/13 06:04:12;;;;;;;17.20;15.80;;;7.30;99.90;;;;;;4869601;29;20200;-52
2023/12/13 06:06:43;;;;;;;18.83;17.37;;;7.30;99.90;;;;;;4869871;29;20211;-54
2023/12/13 06:09:09;;;;;;;19.50;17.90;;;7.30;99.90;;;;;;4869973;29;20813;-50
2023/12/13 06:11:35;;;;;;;19.30;17.43;;;7.30;99.90;;;;;;4869706;29;20428;-51
2023/12/13 06:14:01;;;;;;;19.17;17.53;;;7.30;99.90;;;;;;4869936;29;20495;-52
2023/12/13 06:16:26;;;;;;;19.37;17.87;;;7.20;99.90;;;;;;4869165;29;20195;-53
2023/12/13 06:18:52;;;;;;;19.27;17.80;;;7.20;99.90;;;;;;4868738;29;20235;-53
2023/12/13 06:21:17;;;;;;;18.63;16.90;;;7.10;99.90;;;;;;4869422;29;20235;-46
2023/12/13 06:23:43;;;;;;;19.37;17.80;;;7.10;99.90;;;;;;4869175;29;20195;-44
2023/12/13 06:26:09;;;;;;;19.50;17.80;;;7.10;99.90;;;;;;4869231;29;20199;-45
2023/12/13 06:28:34;;;;;;;19.33;17.63;;;7.10;99.90;;;;;;4882930;29;20225;-44
2023/12/13 06:31:00;;;;;;;19.00;17.20;;;7.20;99.90;;;;;;4882935;29;21110;-44
2023/12/13 06:33:26;;;;;;;17.93;16.33;;;7.20;99.90;;;;;;4869027;29;20287;-47
2023/12/13 06:35:53;;;;;;;17.60;16.10;;;7.20;99.90;;;;;;4869234;29;20791;-48
2023/12/13 06:38:19;;;;;;;17.93;16.50;;;7.20;99.90;;;;;;4868907;29;20194;-44
2023/12/13 06:40:44;;;;;;;19.17;17.60;;;7.20;99.90;;;;;;4870001;29;20927;-45
2023/12/13 06:43:10;;;;;;;18.50;17.00;;;7.20;99.90;;;;;;4868683;29;20239;-45
2023/12/13 06:45:35;;;;;;;17.47;16.07;;;7.10;99.90;;;;;;4869117;29;20279;-46
2023/12/13 06:48:01;;;;;;;18.43;16.83;;;7.10;99.90;;;;;;4868621;29;20220;-45
2023/12/13 06:50:27;;;;;;;19.30;17.70;;;7.10;99.90;;;;;;4869000;29;20559;-49
2023/12/13 06:52:54;;;;;;;19.63;17.83;;;7.10;99.90;;;;;;4868529;29;20188;-46
2023/12/13 06:55:20;;;;;;;19.70;18.00;;;7.20;99.90;;;;;;4868669;29;20192;-44
2023/12/13 06:57:47;;;;;;;20.70;18.67;;;7.20;99.90;;;;;;4868656;29;20425;-48
2023/12/13 07:00:13;;;;;;;20.03;18.47;;;7.20;99.90;;;;;;4868254;29;20451;-45
2023/12/13 07:02:39;;;;;;;20.70;18.90;;;7.30;99.90;;;;;;4867716;29;20995;-43
2023/12/13 07:05:07;;;;;;;19.60;18.00;;;7.20;99.90;;;;;;4868185;29;20425;-44
2023/12/13 07:07:33;;;;;;;18.43;16.97;;;7.20;99.90;;;;;;4867532;29;20210;-46
2023/12/13 07:09:58;;;;;;;18.77;17.00;;;7.10;99.90;;;;;;4866985;29;20436;-46
2023/12/13 07:12:27;;;;;;;18.90;17.40;;;7.10;99.90;;;;;;4867600;29;20253;-47
2023/12/13 07:14:55;;;;;;;20.17;18.40;;;7.10;99.90;;;;;;4867356;29;20180;-45
2023/12/13 07:17:20;;;;;;;19.40;17.80;;;7.10;99.90;;;;;;4864923;29;20433;-44
2023/12/13 07:19:46;;;;;;;19.13;17.50;;;7.10;99.90;;;;;;4865508;29;20500;-43
2023/12/13 07:22:12;;;;;;;19.60;17.90;;;7.10;99.90;;;;;;4866031;29;20272;-49
2023/12/13 07:24:37;;;;;;;19.83;18.13;;;7.10;99.90;;;;;;4865133;29;20564;-52
2023/12/13 07:27:04;;;;;;;19.37;17.70;;;7.10;99.90;;;;;;4865865;29;20196;-54
2023/12/13 07:29:32;;;;;;;21.73;19.73;;;7.10;99.90;;;;;;4864066;29;20483;-55
2023/12/13 07:31:58;;;;;;;19.73;17.93;;;7.20;99.90;;;;;;4865997;29;20421;-51
2023/12/13 07:34:23;;;;;;;21.23;19.53;;;7.20;99.90;;;;;;4865619;29;20424;-46
2023/12/13 07:36:49;;;;;;;19.50;17.90;;;7.20;99.90;;;;;;4864603;29;20292;-50
2023/12/13 07:39:15;;;;;;;18.13;16.63;;;7.20;99.90;;;;;;4867824;29;20196;-45
2023/12/13 07:41:41;;;;;;;19.30;17.70;;;7.20;99.90;;;;;;4866881;29;21015;-47
2023/12/13 07:44:07;;;;;;;21.30;19.50;;;7.20;99.90;;;;;;4867571;29;20468;-44
2023/12/13 07:46:33;;;;;;;20.30;18.60;;;7.20;99.90;;;;;;4866865;29;20424;-45
2023/12/13 07:49:03;;;;;;;20.00;18.30;;;7.20;99.90;;;;;;4867101;29;20235;-44
2023/12/13 07:51:30;;;;;;;19.43;17.80;;;7.20;99.90;;;;;;4867810;29;20183;-46
2023/12/13 07:53:58;;;;;;;20.33;18.43;;;7.20;99.90;;;;;;4866380;29;20812;-44
2023/12/13 07:56:25;;;;;;;21.53;19.67;;;7.20;99.90;;;;;;4867397;29;20452;-45
2023/12/13 07:58:50;;;;;;;20.17;18.47;;;7.20;99.90;;;;;;4861637;29;20794;-44
2023/12/13 08:01:16;;;;;;;19.73;18.07;;;7.20;99.90;;;;;;4864525;29;20452;-46
2023/12/13 08:03:43;;;;;;;19.40;17.73;;;7.20;99.90;;;;;;4866422;29;20244;-44
2023/12/13 08:06:20;;;;;;;19.90;18.20;;;7.20;99.90;;;;;;4864728;29;20599;-45
2023/12/13 08:08:47;;;;;;;19.00;17.50;;;7.20;99.90;;;;;;4864728;29;20460;-45
2023/12/13 08:11:13;;;;;;;19.40;17.80;;;7.30;99.90;;;;;;4869556;29;20444;-43
2023/12/13 08:13:38;;;;;;;19.73;17.80;;;7.20;99.90;;;;;;4864841;29;20752;-45
2023/12/13 08:16:05;;;;;;;21.03;19.27;;;7.30;99.90;;;;;;4863802;29;20338;-47
2023/12/13 08:18:30;;;;;;;20.40;18.60;;;7.30;99.90;;;;;;4862741;29;20200;-43
2023/12/13 08:20:56;;;;;;;19.20;17.63;;;7.40;99.90;;;;;;4864521;29;20463;-46
2023/12/13 08:23:22;;;;;;;18.80;17.33;;;7.50;99.90;;;;;;4866022;29;20227;-44
2023/12/13 08:25:47;;;;;;;18.83;17.20;;;7.50;99.90;;;;;;4865702;29;20483;-48
2023/12/13 08:28:13;;;;;;;18.57;17.17;;;7.60;99.90;;;;;;4865647;29;20272;-45
2023/12/13 08:30:38;;;;;;;18.80;17.30;;;7.60;99.90;;;;;;4865869;29;20446;-47
2023/12/13 08:33:04;;;;;;;17.70;16.50;;;7.70;99.90;;;;;;4864561;29;20252;-48
2023/12/13 08:35:29;;;;;;;18.30;16.70;;;7.80;99.90;;;;;;4866141;29;20192;-47
2023/12/13 08:37:55;;;;;;;19.03;17.33;;;7.80;99.90;;;;;;4865779;29;20758;-46
2023/12/13 08:40:21;;;;;;;18.83;17.23;;;7.90;99.90;;;;;;4864587;29;20250;-50
2023/12/13 08:42:46;;;;;;;17.40;15.97;;;8.00;99.90;;;;;;4865669;29;20193;-46
2023/12/13 08:45:13;;;;;;;18.53;17.13;;;8.10;99.90;;;;;;4865524;29;20235;-47
2023/12/13 08:47:39;;;;;;;18.70;17.17;;;8.30;99.90;;;;;;4864501;29;20771;-47
2023/12/13 08:50:06;;;;;;;18.80;17.30;;;8.50;99.90;;;;;;4865173;29;20511;-45
2023/12/13 08:52:32;;;;;;;18.90;17.50;;;8.80;99.90;;;;;;4865645;29;20692;-45
2023/12/13 08:54:58;;;;;;;20.03;18.33;;;9.20;99.90;;;;;;4870400;29;20428;-45
2023/12/13 08:57:23;;;;;;;18.60;17.20;;;9.40;99.90;;;;;;4866040;29;20421;-46
2023/12/13 08:59:49;;;;;;;18.40;17.00;;;9.50;99.90;;;;;;4861527;29;20476;-48
2023/12/13 09:02:15;;;;;;;17.77;16.50;;;9.60;99.90;;;;;;4864898;29;20635;-47
2023/12/13 09:04:41;;;;;;;19.13;17.77;;;9.50;99.90;;;;;;4866323;29;20239;-47
2023/12/13 09:07:07;;;;;;;18.53;17.13;;;9.40;99.90;;;;;;4865958;29;20436;-54
2023/12/13 09:09:33;;;;;;;18.33;17.03;;;9.40;99.90;;;;;;4872560;29;20231;-51
2023/12/13 09:11:59;;;;;;;19.07;17.60;;;9.40;99.90;;;;;;4865462;29;20476;-53
2023/12/13 09:14:25;;;;;;;17.07;15.77;;;9.30;99.90;;;;;;4865869;29;20608;-53
2023/12/13 09:16:51;;;;;;;16.80;15.57;;;9.30;99.90;;;;;;4865830;29;20484;-48
2023/12/13 09:19:17;;;;;;;17.63;16.43;;;9.20;99.90;;;;;;4872818;29;20935;-46
2023/12/13 09:21:42;;;;;;;17.97;16.57;;;9.10;99.90;;;;;;4865959;29;20472;-47
2023/12/13 09:24:08;;;;;;;17.53;16.00;;;9.20;99.90;;;;;;4863791;29;20192;-44
2023/12/13 09:26:37;;;;;;;17.17;15.97;;;9.10;99.90;;;;;;4864977;29;20579;-45
2023/12/13 09:29:04;;;;;;;17.07;15.87;;;9.00;99.90;;;;;;4869645;29;20638;-44
2023/12/13 09:31:30;;;;;;;16.77;15.57;;;9.00;99.90;;;;;;4864262;29;20441;-44
2023/12/13 09:33:56;;;;;;;17.57;16.27;;;8.90;99.90;;;;;;4865257;29;20886;-44
2023/12/13 09:36:22;;;;;;;18.47;17.07;;;9.00;99.90;;;;;;4865005;29;20974;-47
2023/12/13 09:38:47;;;;;;;17.03;15.70;;;9.00;99.90;;;;;;4862751;29;20505;-43
2023/12/13 09:41:23;;;;;;;16.43;15.27;;;9.00;99.90;;;;;;4865135;29;20299;-45
2023/12/13 09:43:49;;;;;;;17.50;16.13;;;9.10;99.90;;;;;;4862711;29;20235;-45
2023/12/13 09:46:18;;;;;;;17.10;15.90;;;9.10;99.90;;;;;;4865138;29;20547;-52
2023/12/13 09:48:44;;;;;;;16.83;15.57;;;9.00;99.90;;;;;;4865386;29;20579;-49
2023/12/13 09:51:12;;;;;;;17.70;16.40;;;9.00;99.90;;;;;;4864543;29;21005;-54
2023/12/13 09:53:39;;;;;;;16.70;15.47;;;9.00;99.90;;;;;;4864457;29;20458;-53
2023/12/13 09:56:08;;;;;;;17.60;16.40;;;9.00;99.90;;;;;;4863693;29;20947;-53
2023/12/13 09:58:35;;;;;;;17.30;15.90;;;9.00;99.90;;;;;;4863706;29;20975;-55
2023/12/13 10:01:14;;;;;;;17.10;15.80;;;9.00;99.90;;;;;;4863904;29;20452;-53
2023/12/13 10:03:40;;;;;;;16.60;15.40;;;9.00;99.90;;;;;;4866429;29;20967;-49
2023/12/13 10:06:07;;;;;;;17.33;15.93;;;9.00;99.90;;;;;;4867853;29;20446;-50
2023/12/13 10:08:33;;;;;;;16.40;15.30;;;9.10;99.90;;;;;;4868293;29;20892;-54
2023/12/13 10:10:59;;;;;;;15.77;14.60;;;9.20;99.90;;;;;;4868036;29;20476;-55
2023/12/13 10:13:28;;;;;;;18.23;16.80;;;9.30;99.90;;;;;;4868369;29;20424;-52
2023/12/13 10:15:53;;;;;;;17.30;16.17;;;9.40;99.90;;;;;;4867191;29;20546;-52
2023/12/13 10:18:19;;;;;;;17.00;15.70;;;9.40;99.90;;;;;;4867969;29;20443;-51
2023/12/13 10:20:45;;;;;;;16.20;15.10;;;9.40;99.90;;;;;;4868417;29;20555;-54
2023/12/13 10:23:11;;;;;;;17.50;16.17;;;9.50;99.90;;;;;;4867606;29;20207;-54
2023/12/13 10:25:38;;;;;;;15.63;14.60;;;9.50;99.90;;;;;;4868489;29;20436;-51
2023/12/13 10:28:04;;;;;;;16.33;15.13;;;9.70;99.90;;;;;;4867891;29;20515;-55
2023/12/13 10:30:30;;;;;;;16.27;15.17;;;9.80;99.90;;;;;;4867666;29;20437;-52
2023/12/13 10:32:55;;;;;;;16.57;15.37;;;10.00;99.90;;;;;;4867930;29;20450;-54
2023/12/13 10:35:22;;;;;;;16.53;15.33;;;10.10;99.90;;;;;;4868165;29;20198;-56
2023/12/13 10:37:50;;;;;;;16.00;14.90;;;10.20;99.90;;;;;;4867299;29;20184;-45
2023/12/13 10:40:17;;;;;;;16.23;15.20;;;10.30;99.90;;;;;;4867038;29;20477;-44
2023/12/13 10:42:47;;;;;;;15.37;14.33;;;10.30;99.90;;;;;;4866127;29;20475;-47
2023/12/13 10:45:15;;;;;;;16.70;15.40;;;10.20;99.90;;;;;;4867564;29;20943;-45
2023/12/13 10:47:44;;;;;;;16.10;14.90;;;10.20;99.90;;;;;;4867664;29;20913;-43
2023/12/13 10:50:11;;;;;;;17.23;15.77;;;10.20;99.90;;;;;;4867680;29;20467;-44
2023/12/13 10:52:37;;;;;;;16.43;15.23;;;10.20;99.90;;;;;;4867538;29;20432;-45
2023/12/13 10:55:03;;;;;;;18.17;16.77;;;10.30;99.90;;;;;;4866804;29;20472;-45
2023/12/13 10:57:29;;;;;;;15.93;14.73;;;10.30;99.90;;;;;;4868092;29;20515;-43
2023/12/13 10:59:55;;;;;;;16.30;15.10;;;10.30;99.90;;;;;;4867801;29;20420;-45
2023/12/13 11:02:22;;;;;;;17.23;16.07;;;10.30;99.90;;;;;;4867864;29;20192;-49
2023/12/13 11:04:48;;;;;;;16.93;15.73;;;10.40;99.90;;;;;;4867886;29;20433;-45
2023/12/13 11:07:14;;;;;;;17.00;15.80;;;10.30;99.90;;;;;;4867512;29;20848;-46
2023/12/13 11:09:53;;;;;;;16.13;15.03;;;10.30;99.90;;;;;;4866230;29;20833;-45
2023/12/13 11:12:19;;;;;;;15.37;14.27;;;10.30;99.90;;;;;;4863012;29;20464;-44
2023/12/13 11:14:50;;;;;;;16.47;15.27;;;10.30;99.90;;;;;;4867550;29;20826;-46
2023/12/13 11:17:16;;;;;;;16.77;15.50;;;10.40;99.90;;;;;;4867635;29;20194;-45
2023/12/13 11:19:42;;;;;;;16.57;15.37;;;10.30;99.50;;;;;;4867265;29;20423;-44
2023/12/13 11:22:12;;;;;;;16.40;15.10;;;10.30;99.90;;;;;;4866503;29;20432;-49
2023/12/13 11:24:40;;;;;;;16.90;15.67;;;10.40;99.90;;;;;;4866628;29;20222;-45
2023/12/13 11:27:10;;;;;;;16.70;15.50;;;10.50;99.90;;;;;;4867243;29;20694;-45
2023/12/13 11:29:36;;;;;;;16.80;15.40;;;10.70;99.90;;;;;;4866579;29;20476;-44
2023/12/13 11:32:04;;;;;;;18.40;17.07;;;10.80;99.90;;;;;;4866804;29;20915;-56
2023/12/13 11:34:43;;;;;;;16.90;15.70;;;10.80;99.90;;;;;;4866013;29;20627;-51
2023/12/13 11:37:12;;;;;;;17.43;16.20;;;10.90;95.90;;;;;;4861383;29;20447;-54
2023/12/13 11:39:39;;;;;;;16.77;15.50;;;10.90;92.00;;;;;;4865422;29;20560;-48
2023/12/13 11:42:09;;;;;;;16.97;15.77;;;11.00;69.20;;;;;;4865264;29;20532;-44
2023/12/13 11:44:36;;;;;;;18.90;17.30;;;11.00;71.20;;;;;;4865791;29;20542;-46
2023/12/13 11:47:10;;;;;;;18.50;17.10;;;11.10;72.10;;;;;;4864754;29;21430;-45
2023/12/13 11:49:40;;;;;;;16.73;15.43;;;11.10;51.70;;;;;;4865305;29;20480;-51
2023/12/13 11:52:06;;;;;;;17.27;16.07;;;11.20;60.90;;;;;;4865279;29;20947;-47
2023/12/13 11:54:35;;;;;;;17.40;16.20;;;11.50;90.20;;;;;;4865643;29;21595;-44
2023/12/13 11:57:02;;;;;;;18.43;17.00;;;12.30;83.10;;;;;;4865409;29;20459;-47
2023/12/13 11:59:28;;;;;;;17.80;16.40;;;13.30;37.90;;;;;;4866067;29;20484;-46
2023/12/13 12:01:54;;;;;;;17.13;15.87;;;14.50;1.00;;;;;;4866276;29;20898;-47
2023/12/13 12:04:20;;;;;;;15.53;14.47;;;15.50;1.00;;;;;;4866096;29;20738;-48
2023/12/13 12:06:49;;;;;;;16.23;15.23;;;16.20;99.90;;;;;;4865516;29;20204;-45
2023/12/13 12:09:23;;;;;;;15.40;14.40;;;17.00;99.90;;;;;;4864695;29;20211;-47
2023/12/13 12:11:53;;;;;;;16.30;15.20;;;17.50;99.90;;;;;;4861397;29;20432;-53
2023/12/13 12:14:19;;;;;;;14.97;14.10;;;17.60;98.30;;;;;;4865644;29;20788;-52
2023/12/13 12:16:44;;;;;;;15.83;14.87;;;17.60;96.70;;;;;;4865356;29;20448;-52
2023/12/13 12:19:10;;;;;;;15.63;14.70;;;17.40;97.10;;;;;;4865334;29;20200;-51
2023/12/13 12:21:36;;;;;;;15.40;14.50;;;17.10;96.80;;;;;;4864706;29;20200;-55
2023/12/13 12:24:02;;;;;;;16.23;15.13;;;16.70;98.10;;;;;;4865659;29;20191;-54
2023/12/13 12:26:28;;;;;;;14.90;14.00;;;16.50;98.70;;;;;;4864899;29;20452;-50
2023/12/13 12:28:54;;;;;;;14.87;13.90;;;16.20;98.00;;;;;;4865776;29;20476;-54
2023/12/13 12:31:20;;;;;;;14.83;13.93;;;16.00;99.90;;;;;;4865148;29;20255;-50
2023/12/13 12:33:56;;;;;;;14.80;13.90;;;16.20;99.90;;;;;;4866400;29;20816;-52